Time;durP1;ratioP1;P1;durP2;ratioP2;P2;SDS_P1;SDS_P2;PMS_P1;PMS_P2;Temp;Humidity;BMP_temperature;BMP_pressure;BME280_temperature;BME280_humidity;BME280_pressure;Samples;Min_cycle;Max_cycle;Signal;HPM_P1;HPM_P2
2023/12/29 00:00:08;;;;;;;252.80;185.70;;;3.60;99.90;;;;;;4936679;29;20023;-75
2023/12/29 00:02:36;;;;;;;252.18;183.43;;;3.60;99.90;;;;;;4919487;29;20115;-78
2023/12/29 00:05:02;;;;;;;280.85;197.88;;;3.60;99.90;;;;;;4936469;29;20087;-77
2023/12/29 00:07:28;;;;;;;284.15;201.23;;;3.60;99.90;;;;;;4929547;29;20032;-75
2023/12/29 00:09:54;;;;;;;266.02;193.75;;;3.60;99.90;;;;;;4915948;29;20047;-76
2023/12/29 00:12:19;;;;;;;266.00;187.57;;;3.60;99.90;;;;;;4917102;29;20028;-74
2023/12/29 00:14:45;;;;;;;250.25;184.13;;;3.60;99.90;;;;;;4921643;29;20024;-75
2023/12/29 00:17:11;;;;;;;251.85;183.35;;;3.60;99.90;;;;;;4931465;29;20038;-75
2023/12/29 00:19:37;;;;;;;282.27;202.40;;;3.50;99.90;;;;;;4915942;29;20040;-75
2023/12/29 00:22:04;;;;;;;273.70;196.05;;;3.50;99.90;;;;;;4919505;29;20075;-76
2023/12/29 00:24:32;;;;;;;257.77;191.07;;;3.60;99.90;;;;;;4917090;29;20067;-74
2023/12/29 00:26:58;;;;;;;254.73;191.20;;;3.60;99.90;;;;;;4916985;29;20101;-75
2023/12/29 00:29:25;;;;;;;280.45;204.77;;;3.50;99.90;;;;;;4916998;29;20032;-75
2023/12/29 00:31:50;;;;;;;289.38;198.70;;;3.50;99.90;;;;;;4916609;29;20354;-78
2023/12/29 00:34:16;;;;;;;266.92;191.25;;;3.50;99.90;;;;;;4916858;29;20087;-75
2023/12/29 00:36:42;;;;;;;281.13;202.15;;;3.40;99.90;;;;;;4915637;29;20067;-76
2023/12/29 00:39:08;;;;;;;291.45;204.63;;;3.40;99.90;;;;;;4916649;29;20508;-74
2023/12/29 00:41:34;;;;;;;293.17;202.82;;;3.30;99.90;;;;;;4922164;29;20031;-77
2023/12/29 00:44:01;;;;;;;288.23;202.82;;;3.40;99.90;;;;;;4916190;29;20032;-77
2023/12/29 00:46:26;;;;;;;269.67;195.10;;;3.40;99.90;;;;;;4915265;29;20047;-75
2023/12/29 00:48:52;;;;;;;286.40;205.85;;;3.40;99.90;;;;;;4915451;29;20480;-77
2023/12/29 00:51:18;;;;;;;258.98;184.75;;;3.40;99.90;;;;;;4915277;29;20051;-77
2023/12/29 00:53:44;;;;;;;245.90;174.50;;;3.40;99.90;;;;;;4916105;29;20028;-77
2023/12/29 00:56:11;;;;;;;213.75;151.75;;;3.50;99.90;;;;;;4914978;29;20100;-75
2023/12/29 00:58:39;;;;;;;222.30;154.15;;;3.50;99.90;;;;;;4916367;29;20025;-77
2023/12/29 01:01:08;;;;;;;198.27;133.70;;;3.50;99.90;;;;;;4915014;29;20039;-75
2023/12/29 01:03:35;;;;;;;142.07;100.10;;;3.50;99.90;;;;;;4914581;29;20164;-78
2023/12/29 01:06:01;;;;;;;121.43;86.13;;;3.50;99.90;;;;;;4915106;29;20060;-77
2023/12/29 01:08:28;;;;;;;129.95;93.90;;;3.50;99.90;;;;;;4915818;29;20428;-77
2023/12/29 01:10:54;;;;;;;118.75;87.60;;;3.40;99.90;;;;;;4927099;29;20068;-78
2023/12/29 01:13:20;;;;;;;127.35;87.97;;;3.30;99.90;;;;;;4917395;29;20459;-76
2023/12/29 01:15:45;;;;;;;116.78;85.78;;;3.10;99.90;;;;;;4917805;29;20444;-75
2023/12/29 01:18:12;;;;;;;105.72;80.03;;;3.20;99.90;;;;;;4917704;29;20031;-77
2023/12/29 01:20:39;;;;;;;110.35;76.82;;;3.20;99.90;;;;;;4918282;29;20091;-77
2023/12/29 01:23:05;;;;;;;105.38;72.72;;;3.10;99.90;;;;;;4934978;29;20054;-76
2023/12/29 01:25:31;;;;;;;98.55;73.47;;;3.10;99.90;;;;;;4917406;29;20039;-76
2023/12/29 01:27:57;;;;;;;96.60;69.18;;;3.10;99.90;;;;;;4934646;29;20016;-76
2023/12/29 01:30:23;;;;;;;87.32;64.18;;;3.20;99.90;;;;;;4934777;29;20094;-77
2023/12/29 01:32:49;;;;;;;100.30;68.68;;;3.20;99.90;;;;;;4917453;29;20035;-75
2023/12/29 01:35:15;;;;;;;98.07;68.47;;;3.20;99.90;;;;;;4934458;29;20028;-76
2023/12/29 01:37:42;;;;;;;94.72;65.80;;;3.30;99.90;;;;;;4917910;29;20035;-75
2023/12/29 01:40:08;;;;;;;89.40;65.72;;;3.30;99.90;;;;;;4917255;29;20023;-76
2023/12/29 01:42:35;;;;;;;91.85;66.97;;;3.40;99.90;;;;;;4917424;29;20114;-76
2023/12/29 01:45:01;;;;;;;99.65;71.40;;;3.40;99.90;;;;;;4917564;29;20048;-75
2023/12/29 01:47:28;;;;;;;102.57;67.57;;;3.40;99.90;;;;;;4934363;29;20024;-75
2023/12/29 01:49:54;;;;;;;95.85;67.47;;;3.40;99.90;;;;;;4934582;29;20035;-76
2023/12/29 01:52:20;;;;;;;87.20;63.42;;;3.50;99.90;;;;;;4917872;29;20126;-76
2023/12/29 01:54:48;;;;;;;92.57;64.82;;;3.50;99.90;;;;;;4917594;29;20063;-76
2023/12/29 01:57:14;;;;;;;91.00;67.60;;;3.50;99.90;;;;;;4917413;29;20028;-75
2023/12/29 01:59:41;;;;;;;82.72;60.22;;;3.40;99.90;;;;;;4917248;29;20039;-74
2023/12/29 02:02:07;;;;;;;102.38;74.55;;;3.40;99.90;;;;;;4917467;29;20035;-75
2023/12/29 02:04:33;;;;;;;110.68;76.53;;;3.50;99.90;;;;;;4917580;29;20175;-76
2023/12/29 02:06:59;;;;;;;104.03;67.22;;;3.50;99.90;;;;;;4917552;29;20039;-77
2023/12/29 02:09:25;;;;;;;98.80;66.45;;;3.50;99.90;;;;;;4916892;29;20043;-76
2023/12/29 02:11:51;;;;;;;89.55;65.53;;;3.60;99.90;;;;;;4917034;29;20415;-76
2023/12/29 02:14:19;;;;;;;93.47;67.28;;;3.60;99.90;;;;;;4917426;29;20174;-76
2023/12/29 02:16:56;;;;;;;84.97;59.20;;;3.60;99.90;;;;;;4934205;29;20046;-76
2023/12/29 02:19:22;;;;;;;79.03;52.83;;;3.60;99.90;;;;;;4934101;29;20028;-75
2023/12/29 02:21:48;;;;;;;77.68;54.88;;;3.70;99.90;;;;;;4916924;29;20040;-75
2023/12/29 02:24:14;;;;;;;82.15;52.47;;;3.70;99.90;;;;;;4916826;29;20040;-77
2023/12/29 02:26:44;;;;;;;76.95;51.15;;;3.70;99.90;;;;;;4917672;29;20551;-75
2023/12/29 02:29:13;;;;;;;81.00;54.28;;;3.80;99.90;;;;;;4917121;29;20032;-76
2023/12/29 02:31:43;;;;;;;78.10;54.97;;;3.80;99.90;;;;;;4934121;29;20028;-77
2023/12/29 02:34:12;;;;;;;77.55;52.95;;;3.70;99.90;;;;;;4934173;29;20036;-77
2023/12/29 02:36:42;;;;;;;74.05;54.33;;;3.70;99.90;;;;;;4917252;29;20028;-77
2023/12/29 02:39:10;;;;;;;76.15;54.17;;;3.70;99.90;;;;;;4917174;29;20087;-76
2023/12/29 02:41:38;;;;;;;84.47;58.67;;;3.70;99.90;;;;;;4934053;29;20028;-76
2023/12/29 02:44:04;;;;;;;83.13;60.35;;;3.70;99.90;;;;;;4934049;29;20421;-76
2023/12/29 02:46:30;;;;;;;75.70;52.88;;;3.60;99.90;;;;;;4937607;29;20027;-77
2023/12/29 02:48:56;;;;;;;81.00;58.30;;;3.60;99.90;;;;;;4920589;29;20031;-75
2023/12/29 02:51:22;;;;;;;94.75;63.70;;;3.60;99.90;;;;;;4937106;29;20028;-75
2023/12/29 02:53:48;;;;;;;84.47;60.15;;;3.70;99.90;;;;;;4936814;29;20024;-76
2023/12/29 02:56:14;;;;;;;78.30;53.65;;;3.70;99.90;;;;;;4920722;29;20059;-75
2023/12/29 02:58:41;;;;;;;79.03;56.05;;;3.60;99.90;;;;;;4937575;29;20027;-75
2023/12/29 03:01:07;;;;;;;79.03;54.38;;;3.60;99.90;;;;;;4920161;29;20499;-76
2023/12/29 03:03:34;;;;;;;80.88;56.72;;;3.60;99.90;;;;;;4920164;29;20050;-76
2023/12/29 03:06:00;;;;;;;80.15;54.78;;;3.50;99.90;;;;;;4920575;29;20499;-75
2023/12/29 03:08:26;;;;;;;88.55;61.20;;;3.50;99.90;;;;;;4937170;29;20040;-76
2023/12/29 03:10:52;;;;;;;70.63;49.70;;;3.50;99.90;;;;;;4919806;29;20048;-76
2023/12/29 03:13:17;;;;;;;70.57;48.35;;;3.50;99.90;;;;;;4936974;29;20106;-77
2023/12/29 03:15:43;;;;;;;67.45;48.65;;;3.50;99.90;;;;;;4937362;29;20114;-75
2023/12/29 03:18:09;;;;;;;73.30;48.88;;;3.50;99.90;;;;;;4920283;29;20059;-77
2023/12/29 03:20:35;;;;;;;73.82;51.38;;;3.40;99.90;;;;;;4919978;29;20039;-77
2023/12/29 03:23:01;;;;;;;78.10;54.05;;;3.40;99.90;;;;;;4919648;29;20092;-76
2023/12/29 03:25:27;;;;;;;69.20;48.85;;;3.40;99.90;;;;;;4919766;29;20560;-75
2023/12/29 03:27:53;;;;;;;67.75;46.33;;;3.40;99.90;;;;;;4937224;29;20095;-77
2023/12/29 03:30:19;;;;;;;65.30;43.33;;;3.40;99.90;;;;;;4936941;29;20056;-77
2023/12/29 03:32:44;;;;;;;66.60;43.97;;;3.40;99.90;;;;;;4936587;29;20106;-77
2023/12/29 03:35:10;;;;;;;69.22;45.00;;;3.40;99.90;;;;;;4936833;29;20050;-76
2023/12/29 03:37:37;;;;;;;72.95;48.33;;;3.30;99.90;;;;;;4936871;29;20024;-75
2023/12/29 03:40:04;;;;;;;63.17;44.58;;;3.30;99.90;;;;;;4936824;29;20056;-75
2023/12/29 03:42:29;;;;;;;63.35;40.35;;;3.30;99.90;;;;;;4919856;29;20038;-75
2023/12/29 03:44:55;;;;;;;68.10;43.42;;;3.30;99.90;;;;;;4936095;29;20043;-76
2023/12/29 03:47:21;;;;;;;57.42;38.78;;;3.20;99.90;;;;;;4936299;29;20032;-75
2023/12/29 03:49:48;;;;;;;58.28;37.88;;;3.30;99.90;;;;;;4936796;29;20028;-78
2023/12/29 03:52:16;;;;;;;62.17;41.00;;;3.20;99.90;;;;;;4906724;29;20491;-76
2023/12/29 03:54:42;;;;;;;64.50;40.83;;;3.20;99.90;;;;;;4936883;29;20032;-76
2023/12/29 03:57:08;;;;;;;63.63;41.70;;;3.20;99.90;;;;;;4918899;29;20487;-78
2023/12/29 03:59:37;;;;;;;51.15;34.83;;;3.20;99.90;;;;;;4919471;29;20047;-77
2023/12/29 04:02:03;;;;;;;58.53;37.65;;;3.00;99.90;;;;;;4918572;29;20066;-77
2023/12/29 04:04:29;;;;;;;71.35;45.45;;;3.00;99.90;;;;;;4936655;29;20035;-78
2023/12/29 04:06:55;;;;;;;70.75;45.30;;;2.80;99.90;;;;;;4919016;29;20023;-76
2023/12/29 04:09:21;;;;;;;64.05;45.33;;;2.70;99.90;;;;;;4919143;29;20047;-74
2023/12/29 04:11:47;;;;;;;66.22;43.70;;;2.70;99.90;;;;;;4935800;29;20563;-76
2023/12/29 04:14:13;;;;;;;64.60;45.28;;;2.70;99.90;;;;;;4936204;29;20031;-75
2023/12/29 04:16:39;;;;;;;67.70;45.28;;;2.70;99.90;;;;;;4921399;29;20086;-75
2023/12/29 04:19:05;;;;;;;70.13;47.83;;;2.70;99.90;;;;;;4919510;29;20035;-77
2023/12/29 04:21:31;;;;;;;72.60;49.25;;;2.70;99.90;;;;;;4919117;29;20438;-74
2023/12/29 04:23:57;;;;;;;74.82;49.70;;;2.70;99.90;;;;;;4918015;29;20039;-77
2023/12/29 04:26:23;;;;;;;77.10;49.85;;;2.70;99.90;;;;;;4935950;29;20555;-76
2023/12/29 04:28:49;;;;;;;77.35;51.85;;;2.70;99.90;;;;;;4935602;29;20115;-75
2023/12/29 04:31:15;;;;;;;73.20;51.20;;;2.70;99.90;;;;;;4935687;29;20027;-77
2023/12/29 04:33:41;;;;;;;66.82;44.22;;;2.80;99.90;;;;;;4935482;29;20038;-76
2023/12/29 04:36:07;;;;;;;68.80;47.22;;;2.70;99.90;;;;;;4919093;29;20031;-77
2023/12/29 04:38:33;;;;;;;76.43;52.08;;;2.70;99.90;;;;;;4918673;29;20035;-77
2023/12/29 04:40:58;;;;;;;76.85;50.78;;;2.70;99.90;;;;;;4935527;29;20151;-78
2023/12/29 04:43:24;;;;;;;75.13;51.08;;;2.60;99.90;;;;;;4916244;29;20127;-76
2023/12/29 04:45:50;;;;;;;73.93;49.00;;;2.40;99.90;;;;;;4919004;29;20035;-77
2023/12/29 04:48:16;;;;;;;77.50;51.08;;;2.50;99.90;;;;;;4929902;29;20380;-75
2023/12/29 04:50:43;;;;;;;74.10;50.85;;;2.50;99.90;;;;;;4923561;29;20027;-76
2023/12/29 04:53:08;;;;;;;81.88;56.20;;;2.50;99.90;;;;;;4934881;29;20034;-77
2023/12/29 04:55:34;;;;;;;94.72;61.78;;;2.50;99.90;;;;;;4934493;29;20024;-76
2023/12/29 04:58:00;;;;;;;109.90;73.22;;;2.60;99.90;;;;;;4935723;29;20175;-77
2023/12/29 05:00:26;;;;;;;108.95;72.07;;;2.60;99.90;;;;;;4932018;29;20083;-77
2023/12/29 05:02:52;;;;;;;110.88;73.00;;;2.60;99.90;;;;;;4927901;29;20027;-76
2023/12/29 05:05:18;;;;;;;118.68;77.80;;;2.60;99.90;;;;;;4934654;29;20480;-76
2023/12/29 05:07:44;;;;;;;115.88;80.85;;;2.60;99.90;;;;;;4934670;29;20063;-77
2023/12/29 05:10:09;;;;;;;123.07;80.70;;;2.50;99.90;;;;;;4932958;29;20052;-76
2023/12/29 05:12:35;;;;;;;120.18;79.93;;;2.50;99.90;;;;;;4933069;29;20031;-76
2023/12/29 05:15:01;;;;;;;138.50;89.25;;;2.30;99.90;;;;;;4929278;29;20392;-76
2023/12/29 05:17:27;;;;;;;126.65;88.85;;;2.30;99.90;;;;;;4924234;29;20031;-76
2023/12/29 05:19:53;;;;;;;122.47;84.75;;;2.40;99.90;;;;;;4934891;29;20027;-77
2023/12/29 05:22:19;;;;;;;133.90;90.82;;;2.40;99.90;;;;;;4935103;29;20080;-77
2023/12/29 05:24:45;;;;;;;123.20;86.15;;;2.40;99.90;;;;;;4934779;29;20476;-77
2023/12/29 05:27:11;;;;;;;120.93;83.53;;;2.40;99.90;;;;;;4934862;29;20059;-77
2023/12/29 05:29:37;;;;;;;118.80;84.80;;;2.30;99.90;;;;;;4934515;29;20447;-75
2023/12/29 05:32:04;;;;;;;119.32;82.85;;;2.40;99.90;;;;;;4934778;29;20098;-76
2023/12/29 05:34:30;;;;;;;120.95;86.10;;;2.40;99.90;;;;;;4924536;29;20094;-78
2023/12/29 05:36:56;;;;;;;126.72;87.88;;;2.40;99.90;;;;;;4934988;29;20035;-77
2023/12/29 05:39:22;;;;;;;125.80;83.82;;;2.40;99.90;;;;;;4934450;28;20399;-75
2023/12/29 05:41:48;;;;;;;112.97;76.18;;;2.40;99.90;;;;;;4934961;29;20098;-76
2023/12/29 05:44:15;;;;;;;136.15;85.97;;;2.30;99.90;;;;;;4934633;29;20419;-77
2023/12/29 05:46:45;;;;;;;134.07;89.47;;;2.30;99.90;;;;;;4934417;29;20055;-76
2023/12/29 05:49:11;;;;;;;122.38;86.07;;;2.20;99.90;;;;;;4934303;29;20095;-76
2023/12/29 05:51:37;;;;;;;124.85;87.15;;;2.20;99.90;;;;;;4934887;29;20062;-77
2023/12/29 05:54:03;;;;;;;134.68;89.25;;;2.30;99.90;;;;;;4934435;29;20027;-76
2023/12/29 05:56:29;;;;;;;134.60;86.85;;;2.30;99.90;;;;;;4934295;29;20388;-76
2023/12/29 05:58:55;;;;;;;134.48;91.32;;;2.30;99.90;;;;;;4917966;29;20070;-76
2023/12/29 06:01:20;;;;;;;131.35;88.85;;;2.20;99.90;;;;;;4934191;29;20063;-77
2023/12/29 06:03:46;;;;;;;175.82;116.88;;;2.20;99.90;;;;;;4917544;29;20047;-75
2023/12/29 06:06:12;;;;;;;154.90;105.38;;;2.20;99.90;;;;;;4917186;29;20480;-77
2023/12/29 06:08:38;;;;;;;135.75;92.70;;;2.30;99.90;;;;;;4934662;29;20464;-78
2023/12/29 06:11:04;;;;;;;130.45;87.97;;;2.30;99.90;;;;;;4934217;29;20107;-76
2023/12/29 06:13:30;;;;;;;130.18;86.70;;;2.30;99.90;;;;;;4917433;29;20043;-77
2023/12/29 06:15:56;;;;;;;131.82;87.57;;;2.30;99.90;;;;;;4933867;29;20035;-77
2023/12/29 06:18:22;;;;;;;133.75;89.85;;;2.30;99.90;;;;;;4935018;29;20058;-76
2023/12/29 06:20:47;;;;;;;143.98;96.40;;;2.40;99.90;;;;;;4938378;29;20036;-76
2023/12/29 06:23:13;;;;;;;136.80;90.38;;;2.30;99.90;;;;;;4937904;29;20086;-77
2023/12/29 06:25:41;;;;;;;138.35;89.75;;;2.40;99.90;;;;;;4921430;29;20048;-77
2023/12/29 06:28:08;;;;;;;159.93;112.68;;;2.40;99.90;;;;;;4920763;29;20047;-78
2023/12/29 06:30:34;;;;;;;163.82;108.68;;;2.50;99.90;;;;;;4938188;29;20543;-76
2023/12/29 06:33:00;;;;;;;160.48;104.75;;;2.50;99.90;;;;;;4920569;29;20040;-75
2023/12/29 06:35:26;;;;;;;186.70;127.22;;;2.60;99.90;;;;;;4938228;29;20059;-77
2023/12/29 06:37:51;;;;;;;193.15;135.00;;;2.70;99.90;;;;;;4943751;29;20023;-75
2023/12/29 06:40:18;;;;;;;180.25;130.57;;;2.80;99.90;;;;;;4926739;29;20042;-77
2023/12/29 06:42:43;;;;;;;180.13;119.47;;;2.80;99.90;;;;;;4937580;29;20032;-77
2023/12/29 06:45:09;;;;;;;155.98;104.53;;;2.90;99.90;;;;;;4937536;29;20103;-77
2023/12/29 06:47:35;;;;;;;146.32;101.85;;;3.00;99.90;;;;;;4937340;29;20028;-76
2023/12/29 06:50:03;;;;;;;157.48;106.28;;;3.00;99.90;;;;;;4937602;29;20179;-76
2023/12/29 06:52:33;;;;;;;155.73;112.10;;;3.00;99.90;;;;;;4920764;29;20020;-77
2023/12/29 06:55:01;;;;;;;151.02;111.40;;;3.10;99.90;;;;;;4937257;29;20384;-76
2023/12/29 06:57:27;;;;;;;158.82;110.43;;;3.20;99.90;;;;;;4937872;29;20102;-75
2023/12/29 06:59:53;;;;;;;168.80;113.95;;;3.20;99.90;;;;;;4937463;29;20023;-77
2023/12/29 07:02:19;;;;;;;236.35;153.55;;;3.30;99.90;;;;;;4937662;29;20036;-77
2023/12/29 07:04:45;;;;;;;199.90;137.80;;;3.30;99.90;;;;;;4936830;29;20054;-76
2023/12/29 07:07:11;;;;;;;210.23;142.00;;;3.40;99.90;;;;;;4937703;29;20024;-76
2023/12/29 07:09:40;;;;;;;238.07;156.07;;;3.60;99.90;;;;;;4936925;29;20092;-77
2023/12/29 07:12:06;;;;;;;192.95;130.45;;;3.80;99.90;;;;;;4920519;29;20063;-77
2023/12/29 07:14:32;;;;;;;198.60;138.23;;;3.90;99.90;;;;;;4937427;29;20036;-76
2023/12/29 07:16:58;;;;;;;187.30;128.45;;;4.10;99.90;;;;;;4919641;29;20031;-78
2023/12/29 07:19:24;;;;;;;200.48;132.55;;;4.10;99.90;;;;;;4920426;29;20036;-77
2023/12/29 07:21:50;;;;;;;191.70;129.85;;;4.30;99.90;;;;;;4920028;29;20042;-77
2023/12/29 07:24:16;;;;;;;180.68;126.07;;;4.50;99.90;;;;;;4937343;29;20136;-78
2023/12/29 07:26:42;;;;;;;180.90;116.78;;;4.70;99.90;;;;;;4936642;29;20031;-77
2023/12/29 07:29:08;;;;;;;157.68;104.85;;;4.90;99.90;;;;;;4937177;29;20066;-75
2023/12/29 07:31:37;;;;;;;145.90;98.10;;;5.10;99.90;;;;;;4936255;29;20449;-77
2023/12/29 07:34:03;;;;;;;125.15;89.72;;;5.30;99.90;;;;;;4919999;29;20436;-78
2023/12/29 07:36:29;;;;;;;123.00;84.43;;;5.60;99.90;;;;;;4937063;29;20070;-76
2023/12/29 07:38:55;;;;;;;114.63;76.90;;;5.70;99.90;;;;;;4936250;29;20384;-77
2023/12/29 07:41:21;;;;;;;116.20;77.80;;;5.90;99.90;;;;;;4920116;29;20071;-75
2023/12/29 07:43:47;;;;;;;104.55;75.15;;;6.10;99.90;;;;;;4936652;29;20031;-76
2023/12/29 07:46:13;;;;;;;110.40;79.72;;;6.20;99.90;;;;;;4936885;29;20460;-77
2023/12/29 07:48:39;;;;;;;125.70;82.00;;;6.40;99.90;;;;;;4936509;29;20031;-78
2023/12/29 07:51:06;;;;;;;114.10;77.43;;;6.50;99.90;;;;;;4936687;29;20084;-77
2023/12/29 07:53:32;;;;;;;104.53;74.70;;;6.60;99.90;;;;;;4936379;29;20118;-78
2023/12/29 07:55:58;;;;;;;99.95;68.22;;;6.80;99.90;;;;;;4936933;29;20163;-77
2023/12/29 07:58:24;;;;;;;98.43;69.95;;;6.90;99.90;;;;;;4936073;29;20031;-76
2023/12/29 08:00:49;;;;;;;105.20;69.75;;;7.00;99.90;;;;;;4936747;29;20079;-76
2023/12/29 08:03:16;;;;;;;90.40;62.67;;;7.10;99.90;;;;;;4936113;29;20086;-77
2023/12/29 08:05:41;;;;;;;98.50;69.35;;;7.20;99.90;;;;;;4936089;29;20023;-76
2023/12/29 08:08:07;;;;;;;94.60;62.47;;;7.10;99.90;;;;;;4936460;29;20027;-77
2023/12/29 08:10:33;;;;;;;85.47;56.85;;;7.00;99.90;;;;;;4935364;29;20059;-76
2023/12/29 08:12:59;;;;;;;91.55;64.53;;;6.90;99.90;;;;;;4936325;29;20106;-76
2023/12/29 08:15:25;;;;;;;100.32;68.93;;;6.70;99.90;;;;;;4936030;29;20032;-76
2023/12/29 08:17:51;;;;;;;104.10;73.55;;;6.70;99.90;;;;;;4936248;29;20027;-77
2023/12/29 08:20:17;;;;;;;84.30;58.47;;;6.70;99.90;;;;;;4935862;29;20096;-76
2023/12/29 08:22:43;;;;;;;107.00;79.80;;;6.80;99.90;;;;;;4936038;29;20035;-78
2023/12/29 08:25:09;;;;;;;89.28;54.25;;;6.80;99.90;;;;;;4935899;29;20053;-76
2023/12/29 08:27:35;;;;;;;71.53;50.05;;;7.00;99.90;;;;;;4918880;29;20456;-78
2023/12/29 08:30:01;;;;;;;98.25;69.63;;;7.10;99.90;;;;;;4935921;29;20060;-78
2023/12/29 08:32:27;;;;;;;118.10;82.47;;;7.30;99.90;;;;;;4935058;29;20024;-77
2023/12/29 08:34:53;;;;;;;124.13;76.57;;;7.50;99.90;;;;;;4935737;29;20063;-76
2023/12/29 08:37:19;;;;;;;96.22;61.85;;;7.80;99.90;;;;;;4935625;29;20401;-76
2023/12/29 08:39:48;;;;;;;85.43;60.10;;;8.00;99.90;;;;;;4935752;29;20031;-77
2023/12/29 08:42:15;;;;;;;85.63;64.45;;;8.10;99.90;;;;;;4934641;29;20028;-77
2023/12/29 08:44:41;;;;;;;85.93;63.47;;;8.20;99.90;;;;;;4935550;29;20392;-77
2023/12/29 08:47:08;;;;;;;84.93;59.90;;;8.30;99.90;;;;;;4926849;29;20110;-78
2023/12/29 08:49:37;;;;;;;79.07;56.95;;;8.40;99.90;;;;;;4918630;29;20082;-75
2023/12/29 08:52:04;;;;;;;80.70;59.00;;;8.60;99.90;;;;;;4935220;29;20416;-75
2023/12/29 08:54:30;;;;;;;100.57;74.57;;;8.70;99.90;;;;;;4918571;29;20032;-76
2023/12/29 08:56:56;;;;;;;111.28;82.88;;;8.80;99.90;;;;;;4935580;29;20158;-77
2023/12/29 08:59:22;;;;;;;58.78;42.05;;;9.00;99.90;;;;;;4935576;29;20038;-75
2023/12/29 09:01:47;;;;;;;58.30;40.30;;;8.90;99.90;;;;;;4917849;29;20023;-78
2023/12/29 09:04:13;;;;;;;62.45;41.47;;;8.90;99.90;;;;;;4935313;29;20050;-76
2023/12/29 09:06:39;;;;;;;63.15;41.30;;;8.90;99.90;;;;;;4935267;29;20016;-75
2023/12/29 09:09:05;;;;;;;71.15;43.58;;;8.80;99.90;;;;;;4943757;29;20387;-76
2023/12/29 09:11:31;;;;;;;65.05;46.35;;;8.70;99.90;;;;;;4914788;29;20044;-76
2023/12/29 09:13:57;;;;;;;77.13;50.90;;;8.60;99.90;;;;;;4916229;29;20032;-75
2023/12/29 09:16:23;;;;;;;74.35;49.65;;;8.40;99.90;;;;;;4916448;29;20028;-77
2023/12/29 09:18:49;;;;;;;70.00;47.40;;;8.60;99.90;;;;;;4916260;29;20388;-76
2023/12/29 09:21:14;;;;;;;75.63;51.22;;;8.60;99.90;;;;;;4915778;29;20032;-77
2023/12/29 09:23:41;;;;;;;85.20;54.50;;;8.60;99.90;;;;;;4914727;29;20112;-75
2023/12/29 09:26:07;;;;;;;71.28;51.05;;;8.60;99.90;;;;;;4915670;29;20063;-77
2023/12/29 09:28:33;;;;;;;91.60;56.58;;;8.50;99.90;;;;;;4916014;29;20052;-75
2023/12/29 09:31:00;;;;;;;88.75;58.40;;;8.70;99.90;;;;;;4915444;29;20032;-76
2023/12/29 09:33:26;;;;;;;78.20;56.67;;;8.80;99.90;;;;;;4916207;29;20110;-76
2023/12/29 09:35:52;;;;;;;89.57;59.22;;;9.00;99.90;;;;;;4917559;29;20040;-74
2023/12/29 09:38:19;;;;;;;85.65;60.50;;;9.00;99.90;;;;;;4915950;29;20084;-76
2023/12/29 09:40:46;;;;;;;90.13;66.05;;;9.20;99.90;;;;;;4915871;29;20023;-77
2023/12/29 09:43:13;;;;;;;103.15;73.43;;;9.20;99.90;;;;;;4912849;29;20071;-75
2023/12/29 09:45:42;;;;;;;136.23;78.55;;;9.40;99.90;;;;;;4913641;29;20548;-75
2023/12/29 09:48:11;;;;;;;126.22;85.55;;;9.50;99.90;;;;;;4915594;29;20103;-77
2023/12/29 09:50:38;;;;;;;124.00;90.63;;;9.70;99.90;;;;;;4915703;29;20103;-75
2023/12/29 09:53:06;;;;;;;83.70;57.70;;;9.90;99.90;;;;;;4912825;29;20032;-75
2023/12/29 09:55:33;;;;;;;84.03;57.75;;;10.00;99.90;;;;;;4910911;29;20071;-75
2023/12/29 09:58:00;;;;;;;114.63;82.10;;;10.20;99.90;;;;;;4907382;29;20075;-76
2023/12/29 10:00:27;;;;;;;120.00;85.18;;;10.40;99.90;;;;;;4902172;29;20118;-76
2023/12/29 10:02:54;;;;;;;122.68;85.70;;;10.50;99.90;;;;;;4921449;29;20063;-76
2023/12/29 10:05:20;;;;;;;117.35;79.97;;;10.60;99.90;;;;;;4913829;29;20048;-76
2023/12/29 10:07:47;;;;;;;105.53;73.25;;;10.70;99.90;;;;;;4915717;29;20047;-77
2023/12/29 10:10:16;;;;;;;83.97;55.85;;;10.70;99.90;;;;;;4921741;29;20496;-77
2023/12/29 10:12:47;;;;;;;77.45;56.13;;;10.70;99.90;;;;;;4934659;29;20075;-77
2023/12/29 10:15:24;;;;;;;89.57;62.00;;;10.90;99.90;;;;;;4898337;29;20032;-77
2023/12/29 10:18:02;;;;;;;85.78;64.15;;;11.00;99.90;;;;;;4929767;29;20036;-77
2023/12/29 10:20:28;;;;;;;98.03;65.25;;;11.10;99.90;;;;;;4934398;29;20432;-77
2023/12/29 10:23:03;;;;;;;102.65;71.28;;;11.20;99.90;;;;;;4934548;29;20023;-77
2023/12/29 10:25:30;;;;;;;108.20;79.85;;;11.30;99.90;;;;;;4934969;29;20476;-77
2023/12/29 10:27:57;;;;;;;114.50;83.97;;;11.30;99.90;;;;;;4934447;29;20027;-77
2023/12/29 10:30:23;;;;;;;114.75;84.40;;;11.40;99.90;;;;;;4934734;29;20091;-76
2023/12/29 10:32:52;;;;;;;110.72;79.60;;;11.40;99.90;;;;;;4934025;29;20020;-76
2023/12/29 10:35:19;;;;;;;113.82;80.32;;;11.50;99.90;;;;;;4934305;29;20491;-77
2023/12/29 10:37:45;;;;;;;115.05;84.18;;;11.50;99.90;;;;;;4934204;29;20107;-77
2023/12/29 10:40:18;;;;;;;103.53;78.60;;;11.60;99.90;;;;;;4934182;29;20102;-77
2023/12/29 10:42:54;;;;;;;100.75;73.93;;;11.60;99.90;;;;;;4934532;29;20036;-76
2023/12/29 10:45:21;;;;;;;110.95;76.35;;;11.60;99.90;;;;;;4934063;29;20384;-77
2023/12/29 10:47:47;;;;;;;94.82;69.80;;;11.70;99.90;;;;;;4934372;29;20039;-76
2023/12/29 10:50:13;;;;;;;104.05;72.18;;;11.80;99.90;;;;;;4934026;29;20040;-77
2023/12/29 10:52:41;;;;;;;98.75;73.50;;;11.80;99.90;;;;;;4934250;29;20103;-76
2023/12/29 10:55:09;;;;;;;93.53;61.85;;;11.90;99.90;;;;;;4916885;29;20032;-76
2023/12/29 10:57:36;;;;;;;95.15;61.95;;;11.80;99.90;;;;;;4933987;29;20531;-76
2023/12/29 11:00:07;;;;;;;83.63;60.83;;;11.80;99.90;;;;;;4916907;29;20502;-76
2023/12/29 11:02:35;;;;;;;84.40;56.30;;;11.90;99.90;;;;;;4933962;29;20027;-76
2023/12/29 11:05:10;;;;;;;81.72;57.75;;;12.00;99.90;;;;;;4933867;29;20503;-77
2023/12/29 11:07:41;;;;;;;85.35;56.33;;;12.20;99.90;;;;;;4937637;29;20049;-75
2023/12/29 11:10:09;;;;;;;87.85;58.45;;;12.30;99.90;;;;;;4936890;29;20400;-76
2023/12/29 11:12:36;;;;;;;80.57;59.47;;;12.40;99.90;;;;;;4937440;29;20083;-74
2023/12/29 11:15:05;;;;;;;82.80;54.30;;;12.60;99.90;;;;;;4919984;29;20051;-75
2023/12/29 11:17:32;;;;;;;85.63;53.65;;;;;;;;;;4920415;29;20480;-76
2023/12/29 11:20:04;;;;;;;78.72;53.42;;;13.00;99.90;;;;;;4937327;29;20024;-77
2023/12/29 11:22:31;;;;;;;76.93;48.63;;;13.20;99.90;;;;;;4937206;29;20084;-75
2023/12/29 11:24:59;;;;;;;63.85;42.95;;;13.40;99.90;;;;;;4937370;29;20488;-75
2023/12/29 11:27:30;;;;;;;60.70;38.05;;;13.50;99.90;;;;;;4937076;29;20027;-76
2023/12/29 11:30:00;;;;;;;49.80;32.40;;;13.60;99.90;;;;;;4937692;29;20384;-76
2023/12/29 11:32:55;;;;;;;42.60;26.80;;;13.70;99.90;;;;;;4937138;29;20092;-76
2023/12/29 11:35:30;;;;;;;43.72;28.10;;;13.80;99.90;;;;;;4937067;29;20032;-76
2023/12/29 11:37:58;;;;;;;36.80;23.60;;;13.80;99.90;;;;;;4937209;29;20547;-75
2023/12/29 11:40:49;;;;;;;36.33;22.60;;;14.00;99.90;;;;;;4936477;29;20480;-75
2023/12/29 11:43:18;;;;;;;32.55;18.55;;;14.10;99.90;;;;;;4920039;29;20484;-77
2023/12/29 11:45:44;;;;;;;20.83;12.23;;;14.20;99.90;;;;;;4936968;29;20040;-77
2023/12/29 11:48:11;;;;;;;22.15;13.88;;;14.30;99.30;;;;;;4936647;29;20048;-76
2023/12/29 11:50:40;;;;;;;28.23;17.92;;;14.40;98.80;;;;;;4936503;29;20403;-77
2023/12/29 11:53:11;;;;;;;35.67;22.65;;;14.40;98.50;;;;;;4936560;29;20032;-76
2023/12/29 11:55:39;;;;;;;35.55;23.55;;;14.40;98.90;;;;;;4936498;29;20110;-75
2023/12/29 11:58:28;;;;;;;36.25;25.35;;;14.40;98.60;;;;;;4919903;29;20030;-75
2023/12/29 12:00:55;;;;;;;37.80;26.17;;;14.50;98.80;;;;;;4919335;29;20114;-77
2023/12/29 12:03:31;;;;;;;43.17;27.95;;;14.50;98.50;;;;;;4936177;29;20035;-76
2023/12/29 12:05:58;;;;;;;35.33;23.60;;;14.50;98.60;;;;;;4936777;29;20384;-77
2023/12/29 12:08:34;;;;;;;34.45;22.45;;;14.60;97.80;;;;;;4936211;29;20084;-77
2023/12/29 12:11:39;;;;;;;30.98;20.38;;;14.60;97.90;;;;;;4936425;29;20043;-75
2023/12/29 12:14:05;;;;;;;26.08;17.23;;;14.60;97.10;;;;;;4926122;29;20066;-75
2023/12/29 12:16:46;;;;;;;26.63;17.45;;;14.60;97.80;;;;;;4935855;29;20480;-74
2023/12/29 12:19:12;;;;;;;31.15;19.70;;;14.60;97.00;;;;;;4936097;29;20051;-75
2023/12/29 12:21:39;;;;;;;29.17;18.17;;;14.60;96.80;;;;;;4936056;29;20038;-76
2023/12/29 12:24:06;;;;;;;30.85;17.20;;;14.60;96.60;;;;;;4935998;29;20044;-74
2023/12/29 12:26:32;;;;;;;29.73;16.08;;;14.60;96.40;;;;;;4918449;29;20866;-75